createdAt,value
2018-11-11T00:01:32.755Z,13.90
2018-11-11T00:04:02.708Z,13.90
2018-11-11T00:06:32.828Z,13.90
2018-11-11T00:09:02.623Z,13.90
2018-11-11T00:11:32.355Z,13.90
2018-11-11T00:14:02.176Z,13.90
2018-11-11T00:16:32.232Z,13.90
2018-11-11T00:19:02.049Z,13.90
2018-11-11T00:21:32.594Z,13.90
2018-11-11T00:24:02.460Z,13.90
2018-11-11T00:26:32.317Z,13.90
2018-11-11T00:29:02.158Z,13.80
2018-11-11T00:31:33.618Z,13.80
2018-11-11T00:34:04.330Z,13.80
2018-11-11T00:36:34.665Z,13.80
2018-11-11T00:39:05.223Z,13.80
2018-11-11T00:41:35.038Z,13.70
2018-11-11T00:44:05.881Z,13.70
2018-11-11T00:46:35.807Z,13.70
2018-11-11T00:49:05.912Z,13.70
2018-11-11T00:51:35.602Z,13.60
2018-11-11T00:54:05.697Z,13.60
2018-11-11T00:56:35.348Z,13.60
2018-11-11T00:59:05.652Z,13.60
2018-11-11T01:01:36.248Z,13.50
2018-11-11T01:04:13.146Z,13.50
2018-11-11T01:06:43.265Z,13.40
2018-11-11T01:09:13.274Z,13.40
2018-11-11T01:11:43.059Z,13.40
2018-11-11T01:14:12.997Z,13.40
2018-11-11T01:16:43.043Z,13.30
2018-11-11T01:19:13.217Z,13.30
2018-11-11T01:21:43.754Z,13.20
2018-11-11T01:24:13.563Z,13.20
2018-11-11T01:26:44.186Z,13.20
2018-11-11T01:29:14.053Z,13.10
2018-11-11T01:31:44.087Z,13.00
2018-11-11T01:34:14.539Z,13.00
2018-11-11T01:36:44.828Z,13.00
2018-11-11T01:39:16.389Z,12.90
2018-11-11T01:41:46.185Z,12.80
2018-11-11T01:44:16.922Z,12.80
2018-11-11T01:46:47.295Z,12.80
2018-11-11T01:49:17.354Z,12.80
2018-11-11T01:51:48.088Z,12.80
2018-11-11T01:54:17.957Z,12.80
2018-11-11T01:56:48.072Z,12.70
2018-11-11T01:59:17.971Z,12.70
2018-11-11T02:01:47.711Z,12.70
2018-11-11T02:04:18.035Z,12.70
2018-11-11T02:06:48.080Z,12.60
2018-11-11T02:09:17.870Z,12.60
2018-11-11T02:11:47.510Z,12.50
2018-11-11T02:14:17.155Z,12.50
2018-11-11T02:16:47.125Z,12.40
2018-11-11T02:19:17.011Z,12.40
2018-11-11T02:21:47.946Z,12.30
2018-11-11T02:24:17.577Z,12.30
2018-11-11T02:26:47.383Z,12.20
2018-11-11T02:29:17.235Z,12.20
2018-11-11T02:31:46.954Z,12.20
2018-11-11T02:34:16.858Z,12.10
2018-11-11T02:36:46.765Z,12.10
2018-11-11T02:39:16.692Z,12.10
2018-11-11T02:41:46.709Z,12.10
2018-11-11T02:44:16.576Z,12.10
2018-11-11T02:46:46.171Z,12.00
2018-11-11T02:49:15.866Z,12.00
2018-11-11T02:51:45.891Z,11.90
2018-11-11T02:54:16.201Z,11.90
2018-11-11T02:56:46.159Z,11.80
2018-11-11T02:59:16.187Z,11.80
2018-11-11T03:01:45.926Z,11.70
2018-11-11T03:04:15.870Z,11.80
2018-11-11T03:06:46.351Z,11.80
2018-11-11T03:09:16.572Z,11.80
2018-11-11T03:11:46.841Z,11.80
2018-11-11T03:14:17.532Z,11.70
2018-11-11T03:16:47.704Z,11.70
2018-11-11T03:19:17.735Z,11.60
2018-11-11T03:21:47.555Z,11.60
2018-11-11T03:24:18.167Z,11.60
2018-11-11T03:26:48.211Z,11.60
2018-11-11T03:29:18.210Z,11.60
2018-11-11T03:31:50.152Z,11.60
2018-11-11T03:34:20.133Z,11.60
2018-11-11T03:36:50.353Z,11.60
2018-11-11T03:39:20.391Z,11.60
2018-11-11T03:41:50.769Z,11.50
2018-11-11T03:44:20.804Z,11.50
2018-11-11T03:46:50.766Z,11.50
2018-11-11T03:49:20.448Z,11.50
2018-11-11T03:51:50.235Z,11.50
2018-11-11T03:54:20.608Z,11.50
2018-11-11T03:56:51.179Z,11.50
2018-11-11T03:59:20.914Z,11.50
2018-11-11T04:01:50.583Z,11.50
2018-11-11T04:04:20.289Z,11.50
2018-11-11T04:06:50.141Z,11.50
2018-11-11T04:09:26.375Z,11.50
2018-11-11T04:11:56.185Z,11.50
2018-11-11T04:14:25.980Z,11.50
2018-11-11T04:16:56.019Z,11.60
2018-11-11T04:19:26.105Z,11.60
2018-11-11T04:21:56.040Z,11.70
2018-11-11T04:24:25.605Z,11.70
2018-11-11T04:26:55.538Z,11.70
2018-11-11T04:29:26.174Z,11.70
2018-11-11T04:31:56.095Z,11.60
2018-11-11T04:34:26.100Z,11.60
2018-11-11T04:36:55.873Z,11.60
2018-11-11T04:39:26.553Z,11.60
2018-11-11T04:41:56.894Z,11.60
2018-11-11T04:44:27.147Z,11.60
2018-11-11T04:46:56.993Z,11.60
2018-11-11T04:49:28.031Z,11.60
2018-11-11T04:51:58.195Z,11.60
2018-11-11T04:54:28.139Z,11.60
2018-11-11T04:56:58.148Z,11.70
2018-11-11T04:59:27.720Z,11.70
2018-11-11T05:01:57.780Z,11.70
2018-11-11T05:04:27.604Z,11.70
2018-11-11T05:06:57.379Z,11.80
2018-11-11T05:09:28.226Z,11.90
2018-11-11T05:11:58.008Z,11.90
2018-11-11T05:14:28.237Z,12.00
2018-11-11T05:16:58.623Z,12.00
2018-11-11T05:19:29.048Z,12.00
2018-11-11T05:21:59.122Z,12.10
2018-11-11T05:24:28.693Z,12.10
2018-11-11T05:26:58.827Z,12.20
2018-11-11T05:29:28.640Z,12.30
2018-11-11T05:31:58.259Z,12.30
2018-11-11T05:34:27.975Z,12.40
2018-11-11T05:36:57.787Z,12.50
2018-11-11T05:39:29.141Z,12.60
2018-11-11T05:41:59.205Z,12.70
2018-11-11T05:44:29.040Z,12.80
2018-11-11T05:46:59.670Z,12.80
2018-11-11T05:49:29.730Z,12.90
2018-11-11T05:51:59.593Z,13.00
2018-11-11T05:54:30.231Z,13.10
2018-11-11T05:56:59.980Z,13.10
2018-11-11T05:59:29.756Z,13.20
2018-11-11T06:01:59.657Z,13.30
2018-11-11T06:04:29.211Z,13.30
2018-11-11T06:06:58.947Z,13.40
2018-11-11T06:09:28.429Z,13.50
2018-11-11T06:11:58.479Z,13.50
2018-11-11T06:14:28.998Z,13.60
2018-11-11T06:16:58.741Z,13.60
2018-11-11T06:19:28.708Z,13.60
2018-11-11T06:21:58.801Z,13.70
2018-11-11T06:24:28.500Z,13.70
2018-11-11T06:26:58.069Z,13.80
2018-11-11T06:29:27.615Z,13.80
2018-11-11T06:31:57.363Z,13.90
2018-11-11T06:34:27.805Z,13.90
2018-11-11T06:36:57.706Z,13.90
2018-11-11T06:39:30.717Z,13.90
2018-11-11T06:42:00.500Z,14.00
2018-11-11T06:44:30.131Z,14.00
2018-11-11T06:47:00.097Z,14.00
2018-11-11T06:49:29.946Z,14.00
2018-11-11T06:51:59.707Z,14.10
2018-11-11T06:54:29.384Z,14.10
2018-11-11T06:56:59.347Z,14.10
2018-11-11T06:59:29.158Z,14.10
2018-11-11T07:01:59.110Z,14.10
2018-11-11T07:04:28.679Z,14.20
2018-11-11T07:06:58.813Z,14.20
2018-11-11T07:09:28.446Z,14.30
2018-11-11T07:11:57.988Z,14.30
2018-11-11T07:14:28.028Z,14.30
2018-11-11T07:16:58.717Z,14.40
2018-11-11T07:19:28.634Z,14.40
2018-11-11T07:21:59.022Z,14.40
2018-11-11T07:24:28.986Z,14.50
2018-11-11T07:26:58.803Z,14.50
2018-11-11T07:29:28.843Z,14.60
2018-11-11T07:31:58.487Z,14.60
2018-11-11T07:34:28.135Z,14.70
2018-11-11T07:36:57.762Z,14.80
2018-11-11T07:39:28.108Z,14.80
2018-11-11T07:41:57.569Z,14.90
2018-11-11T07:44:27.456Z,14.90
2018-11-11T07:46:57.054Z,15.00
2018-11-11T07:49:26.565Z,15.00
2018-11-11T07:51:57.123Z,15.10
2018-11-11T07:54:27.205Z,15.10
2018-11-11T07:56:57.135Z,15.10
2018-11-11T07:59:27.390Z,15.20
2018-11-11T08:01:57.221Z,15.20
2018-11-11T08:04:27.078Z,15.20
2018-11-11T08:06:57.186Z,15.30
2018-11-11T08:09:27.026Z,15.30
2018-11-11T08:11:59.439Z,15.40
2018-11-11T08:14:30.292Z,15.40
2018-11-11T08:17:00.336Z,15.40
2018-11-11T08:19:30.747Z,15.50
2018-11-11T08:22:00.772Z,15.50
2018-11-11T08:24:30.784Z,15.50
2018-11-11T08:27:00.546Z,15.60
2018-11-11T08:29:31.028Z,15.60
2018-11-11T08:32:01.438Z,15.70
2018-11-11T08:34:31.324Z,15.80
2018-11-11T08:37:02.200Z,15.80
2018-11-11T08:39:32.047Z,15.90
2018-11-11T08:42:03.072Z,15.90
2018-11-11T08:44:33.564Z,16.00
2018-11-11T08:47:03.809Z,16.00
2018-11-11T08:49:33.709Z,16.10
2018-11-11T08:52:03.549Z,16.10
2018-11-11T08:54:33.551Z,16.10
2018-11-11T08:57:03.403Z,16.20
2018-11-11T08:59:33.442Z,16.20
2018-11-11T09:02:03.342Z,16.30
2018-11-11T09:04:33.705Z,16.30
2018-11-11T09:07:03.317Z,16.30
2018-11-11T09:09:33.138Z,16.30
2018-11-11T09:12:03.122Z,16.40
2018-11-11T09:14:33.200Z,16.40
2018-11-11T09:17:03.313Z,16.40
2018-11-11T09:19:34.308Z,16.50
2018-11-11T09:22:04.108Z,16.50
2018-11-11T09:24:35.670Z,16.50
2018-11-11T09:27:06.803Z,16.60
2018-11-11T09:29:37.712Z,16.60
2018-11-11T09:32:07.357Z,16.60
2018-11-11T09:34:38.353Z,16.60
2018-11-11T09:37:08.420Z,16.70
2018-11-11T09:39:38.311Z,16.70
2018-11-11T09:42:08.217Z,16.70
2018-11-11T09:44:38.113Z,16.80
2018-11-11T09:47:08.284Z,16.90
2018-11-11T09:49:38.446Z,17.00
2018-11-11T09:52:08.094Z,17.10
2018-11-11T09:54:38.017Z,17.10
2018-11-11T09:57:08.841Z,17.20
2018-11-11T09:59:38.726Z,17.20
2018-11-11T10:02:09.107Z,17.30
2018-11-11T10:04:42.515Z,17.30
2018-11-11T10:07:21.084Z,17.40
2018-11-11T10:09:56.793Z,17.50
2018-11-11T10:13:34.377Z,17.60
2018-11-11T10:18:14.283Z,17.50
2018-11-11T10:21:52.663Z,17.30
2018-11-11T10:25:26.443Z,17.30
2018-11-11T10:28:00.349Z,17.40
2018-11-11T10:30:38.160Z,17.60
2018-11-11T10:33:27.306Z,17.70
2018-11-11T10:36:33.801Z,17.80
2018-11-11T10:39:09.288Z,17.70
2018-11-11T10:41:44.865Z,17.80
2018-11-11T10:44:20.583Z,17.90
2018-11-11T10:46:56.395Z,17.90
2018-11-11T10:49:31.520Z,17.90
2018-11-11T10:52:01.623Z,18.00
2018-11-11T10:54:32.243Z,18.00
2018-11-11T10:57:02.495Z,18.00
2018-11-11T10:59:32.719Z,18.00
2018-11-11T11:02:08.298Z,18.10
2018-11-11T11:04:43.493Z,18.10
2018-11-11T11:07:14.564Z,18.10
2018-11-11T11:09:44.401Z,18.10
2018-11-11T11:12:14.582Z,18.10
2018-11-11T11:14:46.498Z,18.10
2018-11-11T11:17:16.375Z,18.20
2018-11-11T11:19:46.033Z,18.20
2018-11-11T11:22:16.268Z,18.20
2018-11-11T11:24:46.237Z,18.30
2018-11-11T11:27:16.483Z,18.30
2018-11-11T11:29:47.634Z,18.30
2018-11-11T11:32:17.386Z,18.30
2018-11-11T11:34:48.245Z,18.40
2018-11-11T11:37:19.006Z,18.40
2018-11-11T11:39:51.266Z,18.50
2018-11-11T11:42:22.773Z,18.50
2018-11-11T11:44:53.494Z,18.50
2018-11-11T11:47:23.054Z,18.60
2018-11-11T11:49:53.394Z,18.50
2018-11-11T11:52:23.226Z,18.50
2018-11-11T11:54:53.313Z,18.50
2018-11-11T11:57:23.037Z,18.60
2018-11-11T11:59:53.363Z,18.60
2018-11-11T12:02:23.107Z,18.60
2018-11-11T12:04:53.063Z,18.70
2018-11-11T12:07:23.852Z,18.60
2018-11-11T12:09:54.297Z,18.60
2018-11-11T12:12:23.926Z,18.70
2018-11-11T12:14:54.812Z,18.60
2018-11-11T12:17:24.627Z,18.60
2018-11-11T12:19:55.026Z,18.70
2018-11-11T12:22:24.689Z,18.60
2018-11-11T12:24:55.133Z,18.60
2018-11-11T12:27:26.798Z,18.70
2018-11-11T12:29:57.926Z,18.60
2018-11-11T12:32:28.744Z,18.60
2018-11-11T12:34:59.570Z,18.60
2018-11-11T12:37:30.381Z,18.60
2018-11-11T12:40:00.745Z,18.70
2018-11-11T12:42:31.793Z,18.70
2018-11-11T12:45:02.043Z,18.70
2018-11-11T12:47:32.653Z,18.70
2018-11-11T12:50:02.541Z,18.70
2018-11-11T12:52:33.236Z,18.70
2018-11-11T12:55:03.828Z,18.70
2018-11-11T12:57:36.902Z,18.70
2018-11-11T13:00:10.088Z,18.70
2018-11-11T13:02:39.969Z,18.80
2018-11-11T13:05:10.887Z,18.80
2018-11-11T13:07:41.093Z,18.80
2018-11-11T13:10:13.781Z,18.80
2018-11-11T13:12:44.705Z,18.80
2018-11-11T13:15:15.135Z,18.80
2018-11-11T13:17:46.535Z,18.80
2018-11-11T13:20:18.408Z,18.80
2018-11-11T13:22:49.683Z,18.80
2018-11-11T13:25:20.537Z,18.90
2018-11-11T13:27:50.336Z,18.90
2018-11-11T13:30:21.981Z,18.90
2018-11-11T13:32:52.885Z,18.90
2018-11-11T13:35:22.694Z,18.90
2018-11-11T13:37:53.829Z,18.90
2018-11-11T13:40:23.574Z,18.90
2018-11-11T13:42:54.090Z,18.90
2018-11-11T13:45:24.543Z,18.90
2018-11-11T13:47:55.237Z,18.90
2018-11-11T13:50:26.190Z,18.90
2018-11-11T13:52:56.876Z,19.00
2018-11-11T13:55:27.260Z,19.00
2018-11-11T13:57:57.902Z,19.00
2018-11-11T14:00:29.466Z,19.00
2018-11-11T14:03:00.201Z,19.00
2018-11-11T14:05:32.794Z,19.00
2018-11-11T14:08:03.642Z,19.00
2018-11-11T14:10:33.550Z,19.00
2018-11-11T14:13:03.724Z,19.00
2018-11-11T14:15:33.933Z,19.00
2018-11-11T14:18:04.365Z,19.00
2018-11-11T14:20:34.809Z,19.00
2018-11-11T14:23:05.633Z,19.00
2018-11-11T14:25:35.627Z,19.00
2018-11-11T14:28:07.205Z,19.00
2018-11-11T14:30:37.680Z,19.00
2018-11-11T14:33:07.739Z,19.00
2018-11-11T14:35:37.710Z,18.90
2018-11-11T14:38:07.829Z,19.00
2018-11-11T14:40:38.737Z,19.00
2018-11-11T14:43:09.542Z,19.00
2018-11-11T14:45:39.829Z,19.00
2018-11-11T14:48:10.961Z,18.90
2018-11-11T14:50:42.318Z,18.90
2018-11-11T14:53:13.975Z,18.90
2018-11-11T14:55:45.071Z,18.90
2018-11-11T14:58:16.080Z,18.90
2018-11-11T15:00:46.261Z,18.90
2018-11-11T15:03:19.925Z,18.90
2018-11-11T15:05:50.479Z,18.80
2018-11-11T15:08:20.749Z,18.80
2018-11-11T15:10:51.182Z,18.80
2018-11-11T15:13:22.350Z,18.70
2018-11-11T15:15:52.271Z,18.70
2018-11-11T15:18:22.252Z,18.70
2018-11-11T15:20:53.192Z,18.70
2018-11-11T15:23:23.186Z,18.60
2018-11-11T15:25:53.933Z,18.60
2018-11-11T15:28:23.720Z,18.50
2018-11-11T15:30:53.907Z,18.50
2018-11-11T15:33:24.757Z,18.40
2018-11-11T15:35:54.684Z,18.30
2018-11-11T15:38:25.709Z,18.30
2018-11-11T15:40:55.510Z,18.20
2018-11-11T15:43:25.463Z,18.20
2018-11-11T15:45:55.443Z,18.10
2018-11-11T15:48:27.181Z,18.10
2018-11-11T15:50:58.924Z,18.00
2018-11-11T15:53:30.373Z,17.90
2018-11-11T15:56:00.921Z,17.80
2018-11-11T15:58:31.199Z,17.70
2018-11-11T16:01:01.928Z,17.60
2018-11-11T16:03:34.149Z,17.60
2018-11-11T16:06:05.053Z,17.50
2018-11-11T16:08:35.022Z,17.40
2018-11-11T16:11:05.481Z,17.40
2018-11-11T16:13:35.766Z,17.30
2018-11-11T16:16:07.572Z,17.20
2018-11-11T16:18:37.907Z,17.10
2018-11-11T16:21:09.112Z,17.10
2018-11-11T16:23:39.182Z,17.00
2018-11-11T16:26:09.312Z,17.00
2018-11-11T16:28:40.747Z,16.90
2018-11-11T16:31:11.018Z,16.90
2018-11-11T16:33:41.339Z,16.80
2018-11-11T16:36:11.528Z,16.70
2018-11-11T16:38:41.673Z,16.70
2018-11-11T16:41:12.163Z,16.60
2018-11-11T16:43:43.105Z,16.60
2018-11-11T16:46:15.095Z,16.50
2018-11-11T16:48:46.160Z,16.50
2018-11-11T16:51:16.222Z,16.40
2018-11-11T16:53:48.142Z,16.30
2018-11-11T16:56:18.798Z,16.20
2018-11-11T16:58:49.002Z,16.20
2018-11-11T17:01:19.975Z,16.10
2018-11-11T17:03:50.468Z,16.10
2018-11-11T17:06:21.035Z,16.00
2018-11-11T17:08:51.316Z,15.90
2018-11-11T17:11:22.723Z,15.80
2018-11-11T17:13:53.058Z,15.70
2018-11-11T17:16:23.239Z,15.60
2018-11-11T17:18:53.456Z,15.60
2018-11-11T17:21:23.483Z,15.60
2018-11-11T17:23:53.425Z,15.50
2018-11-11T17:26:23.813Z,15.50
2018-11-11T17:28:53.960Z,15.50
2018-11-11T17:31:24.946Z,15.50
2018-11-11T17:33:55.748Z,15.50
2018-11-11T17:36:25.868Z,15.50
2018-11-11T17:38:57.092Z,15.60
2018-11-11T17:41:27.665Z,15.60
2018-11-11T17:43:58.120Z,15.70
2018-11-11T17:46:28.904Z,15.70
2018-11-11T17:49:03.417Z,15.80
2018-11-11T17:51:35.392Z,15.80
2018-11-11T17:54:06.104Z,15.90
2018-11-11T17:56:36.824Z,15.90
2018-11-11T17:59:08.125Z,15.90
2018-11-11T18:01:38.871Z,16.00
2018-11-11T18:04:08.614Z,16.00
2018-11-11T18:06:38.259Z,16.00
2018-11-11T18:09:10.302Z,16.00
2018-11-11T18:11:40.678Z,16.00
2018-11-11T18:14:10.747Z,16.00
2018-11-11T18:16:40.446Z,16.00
2018-11-11T18:19:10.628Z,16.00
2018-11-11T18:21:40.335Z,16.00
2018-11-11T18:24:10.301Z,16.00
2018-11-11T18:26:40.049Z,16.00
2018-11-11T18:29:10.563Z,16.00
2018-11-11T18:31:40.263Z,16.00
2018-11-11T18:34:10.151Z,16.00
2018-11-11T18:36:39.721Z,16.00
2018-11-11T18:39:11.417Z,16.00
2018-11-11T18:41:41.365Z,16.00
2018-11-11T18:44:11.174Z,15.90
2018-11-11T18:46:40.772Z,15.90
2018-11-11T18:49:11.017Z,15.90
2018-11-11T18:51:41.399Z,15.90
2018-11-11T18:54:11.848Z,15.90
2018-11-11T18:56:41.612Z,15.90
2018-11-11T18:59:11.525Z,16.00
2018-11-11T19:01:41.621Z,16.00
2018-11-11T19:04:11.709Z,16.00
2018-11-11T19:06:42.809Z,16.00
2018-11-11T19:09:14.112Z,16.00
2018-11-11T19:11:43.908Z,16.00
2018-11-11T19:14:13.533Z,16.00
2018-11-11T19:16:44.666Z,16.00
2018-11-11T19:19:14.538Z,16.00
2018-11-11T19:21:44.619Z,16.10
2018-11-11T19:24:14.320Z,16.10
2018-11-11T19:26:44.465Z,16.00
2018-11-11T19:29:14.316Z,16.00
2018-11-11T19:31:44.065Z,16.10
2018-11-11T19:34:13.778Z,16.10
2018-11-11T19:36:43.565Z,16.10
2018-11-11T19:39:14.143Z,16.10
2018-11-11T19:41:44.010Z,16.20
2018-11-11T19:44:13.704Z,16.20
2018-11-11T19:46:44.545Z,16.20
2018-11-11T19:49:14.398Z,16.20
2018-11-11T19:51:44.908Z,16.20
2018-11-11T19:54:14.639Z,16.20
2018-11-11T19:56:44.410Z,16.20
2018-11-11T19:59:14.733Z,16.30
2018-11-11T20:01:44.645Z,16.30
2018-11-11T20:04:14.389Z,16.30
2018-11-11T20:06:44.099Z,16.30
2018-11-11T20:09:14.590Z,16.30
2018-11-11T20:11:44.676Z,16.30
2018-11-11T20:14:14.319Z,16.40
2018-11-11T20:16:45.103Z,16.30
2018-11-11T20:19:14.844Z,16.40
2018-11-11T20:21:44.470Z,16.40
2018-11-11T20:24:14.162Z,16.40
2018-11-11T20:26:44.051Z,16.40
2018-11-11T20:29:13.621Z,16.40
2018-11-11T20:31:44.525Z,16.40
2018-11-11T20:34:14.924Z,16.40
2018-11-11T20:36:45.826Z,16.50
2018-11-11T20:39:15.529Z,16.50
2018-11-11T20:41:46.520Z,16.50
2018-11-11T20:44:16.525Z,16.60
2018-11-11T20:46:46.102Z,16.60
2018-11-11T20:49:15.749Z,16.70
2018-11-11T20:51:46.299Z,16.70
2018-11-11T20:54:16.942Z,16.70
2018-11-11T20:56:46.762Z,16.70
2018-11-11T20:59:16.378Z,16.70
2018-11-11T21:01:45.924Z,16.70
2018-11-11T21:04:19.020Z,16.70
2018-11-11T21:06:49.940Z,16.70
2018-11-11T21:09:20.338Z,16.70
2018-11-11T21:11:50.559Z,16.70
2018-11-11T21:14:21.200Z,16.70
2018-11-11T21:16:52.218Z,16.70
2018-11-11T21:19:22.118Z,16.70
2018-11-11T21:21:52.896Z,16.70
2018-11-11T21:24:23.677Z,16.70
2018-11-11T21:26:53.295Z,16.70
2018-11-11T21:29:26.041Z,16.70
2018-11-11T21:31:56.662Z,16.70
2018-11-11T21:34:26.420Z,16.70
2018-11-11T21:36:56.327Z,16.70
2018-11-11T21:39:26.000Z,16.70
2018-11-11T21:41:55.669Z,16.60
2018-11-11T21:44:25.979Z,16.70
2018-11-11T21:46:58.555Z,16.70
2018-11-11T21:49:29.050Z,16.60
2018-11-11T21:51:59.692Z,16.60
2018-11-11T21:54:30.123Z,16.70
2018-11-11T21:57:02.737Z,16.70
2018-11-11T21:59:34.736Z,16.70
2018-11-11T22:02:04.580Z,16.70
2018-11-11T22:04:34.360Z,16.70
2018-11-11T22:07:04.058Z,16.70
2018-11-11T22:09:33.818Z,16.80
2018-11-11T22:12:03.773Z,16.80
2018-11-11T22:14:33.537Z,16.80
2018-11-11T22:17:03.154Z,16.80
2018-11-11T22:19:32.931Z,16.80
2018-11-11T22:22:02.752Z,16.90
2018-11-11T22:24:32.410Z,16.90
2018-11-11T22:27:03.009Z,16.90
2018-11-11T22:29:32.811Z,16.90
2018-11-11T22:32:02.579Z,16.80
2018-11-11T22:34:32.356Z,16.80
2018-11-11T22:37:02.220Z,16.80
2018-11-11T22:39:31.930Z,16.80
2018-11-11T22:42:03.213Z,16.90
2018-11-11T22:44:32.725Z,16.90
2018-11-11T22:47:02.688Z,16.90
2018-11-11T22:49:32.761Z,16.90
2018-11-11T22:54:26.095Z,17.00
2018-11-11T22:56:56.086Z,17.00
2018-11-11T22:59:25.827Z,17.00
2018-11-11T23:01:55.642Z,17.00
2018-11-11T23:04:25.937Z,17.00
2018-11-11T23:06:55.786Z,17.00
2018-11-11T23:09:25.310Z,17.10
2018-11-11T23:11:55.110Z,17.10
2018-11-11T23:14:24.821Z,17.10
2018-11-11T23:16:54.853Z,17.10
2018-11-11T23:19:24.573Z,17.10
2018-11-11T23:21:54.472Z,17.10
2018-11-11T23:24:24.768Z,17.10
2018-11-11T23:26:54.604Z,17.10
2018-11-11T23:29:24.509Z,17.10
2018-11-11T23:31:54.373Z,17.10
2018-11-11T23:34:24.106Z,17.10
2018-11-11T23:36:54.197Z,17.10
2018-11-11T23:39:24.054Z,17.10
2018-11-11T23:41:54.201Z,17.10
2018-11-11T23:44:25.211Z,17.10
2018-11-11T23:46:54.959Z,17.00
2018-11-11T23:49:24.683Z,17.00
2018-11-11T23:51:54.959Z,17.00
2018-11-11T23:54:24.562Z,17.00
2018-11-11T23:56:54.757Z,17.00
2018-11-11T23:59:24.304Z,17.00
